sensor_id;sensor_type;location;lat;lon;timestamp;P1;durP1;ratioP1;P2;durP2;ratioP2
54157;SDS011;40065;49.894;10.358;2023-04-27T00:02:19;6.20;;;2.40;;
54157;SDS011;40065;49.894;10.358;2023-04-27T00:07:21;3.53;;;2.40;;
54157;SDS011;40065;49.894;10.358;2023-04-27T00:12:23;4.65;;;2.33;;
54157;SDS011;40065;49.894;10.358;2023-04-27T00:17:24;6.97;;;3.38;;
54157;SDS011;40065;49.894;10.358;2023-04-27T00:22:26;4.32;;;2.85;;
54157;SDS011;40065;49.894;10.358;2023-04-27T00:27:28;4.55;;;2.97;;
54157;SDS011;40065;49.894;10.358;2023-04-27T00:32:30;3.45;;;2.17;;
54157;SDS011;40065;49.894;10.358;2023-04-27T00:37:31;5.35;;;2.15;;
54157;SDS011;40065;49.894;10.358;2023-04-27T00:42:33;3.30;;;1.90;;
54157;SDS011;40065;49.894;10.358;2023-04-27T00:47:36;4.63;;;1.67;;
54157;SDS011;40065;49.894;10.358;2023-04-27T00:52:38;3.65;;;2.15;;
54157;SDS011;40065;49.894;10.358;2023-04-27T00:57:41;5.70;;;2.67;;
54157;SDS011;40065;49.894;10.358;2023-04-27T01:02:44;3.15;;;1.80;;
54157;SDS011;40065;49.894;10.358;2023-04-27T01:07:46;5.13;;;2.35;;
54157;SDS011;40065;49.894;10.358;2023-04-27T01:12:48;4.30;;;1.83;;
54157;SDS011;40065;49.894;10.358;2023-04-27T01:17:56;3.45;;;1.85;;
54157;SDS011;40065;49.894;10.358;2023-04-27T01:23:01;5.32;;;1.90;;
54157;SDS011;40065;49.894;10.358;2023-04-27T01:28:03;3.33;;;2.28;;
54157;SDS011;40065;49.894;10.358;2023-04-27T01:33:05;3.63;;;1.92;;
54157;SDS011;40065;49.894;10.358;2023-04-27T01:38:07;4.05;;;2.50;;
54157;SDS011;40065;49.894;10.358;2023-04-27T01:43:09;4.43;;;1.92;;
54157;SDS011;40065;49.894;10.358;2023-04-27T01:48:11;4.45;;;2.00;;
54157;SDS011;40065;49.894;10.358;2023-04-27T01:53:13;4.40;;;2.00;;
54157;SDS011;40065;49.894;10.358;2023-04-27T01:58:15;4.65;;;2.22;;
54157;SDS011;40065;49.894;10.358;2023-04-27T02:03:17;5.95;;;3.45;;
54157;SDS011;40065;49.894;10.358;2023-04-27T02:08:19;5.35;;;1.90;;
54157;SDS011;40065;49.894;10.358;2023-04-27T02:13:21;5.97;;;2.80;;
54157;SDS011;40065;49.894;10.358;2023-04-27T02:18:22;3.10;;;2.13;;
54157;SDS011;40065;49.894;10.358;2023-04-27T02:23:25;5.53;;;2.22;;
54157;SDS011;40065;49.894;10.358;2023-04-27T02:28:27;4.30;;;2.20;;
54157;SDS011;40065;49.894;10.358;2023-04-27T02:33:29;5.13;;;2.08;;
54157;SDS011;40065;49.894;10.358;2023-04-27T02:38:31;3.28;;;2.20;;
54157;SDS011;40065;49.894;10.358;2023-04-27T02:43:33;4.15;;;1.90;;
54157;SDS011;40065;49.894;10.358;2023-04-27T02:48:38;5.38;;;1.80;;
54157;SDS011;40065;49.894;10.358;2023-04-27T02:53:40;3.83;;;2.15;;
54157;SDS011;40065;49.894;10.358;2023-04-27T02:58:41;4.57;;;2.47;;
54157;SDS011;40065;49.894;10.358;2023-04-27T03:03:45;3.97;;;2.03;;
54157;SDS011;40065;49.894;10.358;2023-04-27T03:08:50;3.97;;;2.00;;
54157;SDS011;40065;49.894;10.358;2023-04-27T03:13:52;5.70;;;2.47;;
54157;SDS011;40065;49.894;10.358;2023-04-27T03:18:53;5.05;;;2.60;;
54157;SDS011;40065;49.894;10.358;2023-04-27T03:23:55;4.68;;;2.20;;
54157;SDS011;40065;49.894;10.358;2023-04-27T03:28:57;4.65;;;2.40;;
54157;SDS011;40065;49.894;10.358;2023-04-27T03:39:03;5.30;;;2.50;;
54157;SDS011;40065;49.894;10.358;2023-04-27T03:44:05;4.28;;;2.63;;
54157;SDS011;40065;49.894;10.358;2023-04-27T03:49:08;5.05;;;2.67;;
54157;SDS011;40065;49.894;10.358;2023-04-27T03:54:10;6.13;;;2.40;;
54157;SDS011;40065;49.894;10.358;2023-04-27T03:59:12;5.70;;;3.17;;
54157;SDS011;40065;49.894;10.358;2023-04-27T04:04:22;4.82;;;2.50;;
54157;SDS011;40065;49.894;10.358;2023-04-27T04:09:24;3.33;;;2.03;;
54157;SDS011;40065;49.894;10.358;2023-04-27T04:14:27;3.85;;;2.20;;
54157;SDS011;40065;49.894;10.358;2023-04-27T04:19:30;5.47;;;3.00;;
54157;SDS011;40065;49.894;10.358;2023-04-27T04:24:33;8.93;;;3.40;;
54157;SDS011;40065;49.894;10.358;2023-04-27T04:29:36;4.88;;;2.50;;
54157;SDS011;40065;49.894;10.358;2023-04-27T04:34:39;5.32;;;2.83;;
54157;SDS011;40065;49.894;10.358;2023-04-27T04:39:41;4.45;;;3.00;;
54157;SDS011;40065;49.894;10.358;2023-04-27T04:44:42;5.38;;;2.58;;
54157;SDS011;40065;49.894;10.358;2023-04-27T04:49:45;5.20;;;2.85;;
54157;SDS011;40065;49.894;10.358;2023-04-27T04:54:47;5.25;;;2.63;;
54157;SDS011;40065;49.894;10.358;2023-04-27T04:59:52;6.32;;;2.75;;
54157;SDS011;40065;49.894;10.358;2023-04-27T05:04:54;4.18;;;2.30;;
54157;SDS011;40065;49.894;10.358;2023-04-27T05:09:58;5.65;;;3.20;;
54157;SDS011;40065;49.894;10.358;2023-04-27T05:14:59;4.57;;;2.22;;
54157;SDS011;40065;49.894;10.358;2023-04-27T05:20:01;5.30;;;2.50;;
54157;SDS011;40065;49.894;10.358;2023-04-27T05:25:05;6.60;;;2.17;;
54157;SDS011;40065;49.894;10.358;2023-04-27T05:30:07;4.43;;;2.35;;
54157;SDS011;40065;49.894;10.358;2023-04-27T05:35:09;6.25;;;2.08;;
54157;SDS011;40065;49.894;10.358;2023-04-27T05:40:13;9.85;;;3.40;;
54157;SDS011;40065;49.894;10.358;2023-04-27T05:45:16;4.85;;;2.78;;
54157;SDS011;40065;49.894;10.358;2023-04-27T05:50:18;4.80;;;2.40;;
54157;SDS011;40065;49.894;10.358;2023-04-27T05:55:20;5.13;;;2.30;;
54157;SDS011;40065;49.894;10.358;2023-04-27T06:00:22;6.32;;;2.38;;
54157;SDS011;40065;49.894;10.358;2023-04-27T06:05:23;4.38;;;2.00;;
54157;SDS011;40065;49.894;10.358;2023-04-27T06:10:27;5.03;;;2.45;;
54157;SDS011;40065;49.894;10.358;2023-04-27T06:15:29;7.47;;;2.40;;
54157;SDS011;40065;49.894;10.358;2023-04-27T06:20:31;6.43;;;2.30;;
54157;SDS011;40065;49.894;10.358;2023-04-27T06:25:32;4.00;;;1.75;;
54157;SDS011;40065;49.894;10.358;2023-04-27T06:30:35;3.80;;;1.70;;
54157;SDS011;40065;49.894;10.358;2023-04-27T06:35:39;7.65;;;2.33;;
54157;SDS011;40065;49.894;10.358;2023-04-27T06:40:41;3.80;;;1.50;;
54157;SDS011;40065;49.894;10.358;2023-04-27T06:45:43;3.58;;;1.27;;
54157;SDS011;40065;49.894;10.358;2023-04-27T06:50:45;6.53;;;1.98;;
54157;SDS011;40065;49.894;10.358;2023-04-27T06:55:47;5.13;;;2.15;;
54157;SDS011;40065;49.894;10.358;2023-04-27T07:00:49;5.90;;;2.13;;
54157;SDS011;40065;49.894;10.358;2023-04-27T07:05:51;5.60;;;1.92;;
54157;SDS011;40065;49.894;10.358;2023-04-27T07:10:53;4.68;;;2.15;;
54157;SDS011;40065;49.894;10.358;2023-04-27T07:15:56;5.00;;;1.90;;
54157;SDS011;40065;49.894;10.358;2023-04-27T07:20:58;5.05;;;1.90;;
54157;SDS011;40065;49.894;10.358;2023-04-27T07:26:00;4.80;;;2.30;;
54157;SDS011;40065;49.894;10.358;2023-04-27T07:31:03;4.72;;;1.90;;
54157;SDS011;40065;49.894;10.358;2023-04-27T07:36:06;5.53;;;1.80;;
54157;SDS011;40065;49.894;10.358;2023-04-27T07:41:08;7.63;;;2.22;;
54157;SDS011;40065;49.894;10.358;2023-04-27T07:46:10;5.97;;;2.33;;
54157;SDS011;40065;49.894;10.358;2023-04-27T07:51:12;3.58;;;2.10;;
54157;SDS011;40065;49.894;10.358;2023-04-27T07:56:16;5.87;;;2.43;;
54157;SDS011;40065;49.894;10.358;2023-04-27T08:01:18;6.15;;;2.30;;
54157;SDS011;40065;49.894;10.358;2023-04-27T08:06:21;7.15;;;2.03;;
54157;SDS011;40065;49.894;10.358;2023-04-27T08:11:24;6.95;;;2.15;;
54157;SDS011;40065;49.894;10.358;2023-04-27T08:16:26;6.82;;;2.40;;
54157;SDS011;40065;49.894;10.358;2023-04-27T08:21:28;4.32;;;2.10;;
54157;SDS011;40065;49.894;10.358;2023-04-27T08:26:30;7.40;;;2.38;;
54157;SDS011;40065;49.894;10.358;2023-04-27T08:31:33;5.00;;;2.20;;
54157;SDS011;40065;49.894;10.358;2023-04-27T08:36:34;8.45;;;2.38;;
54157;SDS011;40065;49.894;10.358;2023-04-27T08:41:39;5.35;;;2.25;;
54157;SDS011;40065;49.894;10.358;2023-04-27T08:46:43;4.65;;;2.28;;
54157;SDS011;40065;49.894;10.358;2023-04-27T08:51:45;5.85;;;2.33;;
54157;SDS011;40065;49.894;10.358;2023-04-27T08:56:47;3.42;;;2.00;;
54157;SDS011;40065;49.894;10.358;2023-04-27T09:01:48;6.28;;;2.15;;
54157;SDS011;40065;49.894;10.358;2023-04-27T09:06:51;5.18;;;2.30;;
54157;SDS011;40065;49.894;10.358;2023-04-27T09:11:53;5.57;;;2.50;;
54157;SDS011;40065;49.894;10.358;2023-04-27T09:16:55;7.57;;;2.83;;
54157;SDS011;40065;49.894;10.358;2023-04-27T09:22:05;4.43;;;2.88;;
54157;SDS011;40065;49.894;10.358;2023-04-27T09:27:08;4.68;;;2.40;;
54157;SDS011;40065;49.894;10.358;2023-04-27T09:32:20;6.20;;;2.58;;
54157;SDS011;40065;49.894;10.358;2023-04-27T09:37:21;4.25;;;2.50;;
54157;SDS011;40065;49.894;10.358;2023-04-27T09:42:24;8.13;;;2.70;;
54157;SDS011;40065;49.894;10.358;2023-04-27T09:47:26;6.25;;;2.50;;
54157;SDS011;40065;49.894;10.358;2023-04-27T09:52:29;6.30;;;2.90;;
54157;SDS011;40065;49.894;10.358;2023-04-27T09:57:43;8.23;;;2.95;;
54157;SDS011;40065;49.894;10.358;2023-04-27T10:03:04;5.18;;;2.70;;
54157;SDS011;40065;49.894;10.358;2023-04-27T10:08:33;6.53;;;2.90;;
54157;SDS011;40065;49.894;10.358;2023-04-27T10:13:36;7.47;;;2.90;;
54157;SDS011;40065;49.894;10.358;2023-04-27T10:18:38;7.43;;;3.22;;
54157;SDS011;40065;49.894;10.358;2023-04-27T10:23:46;5.55;;;3.00;;
54157;SDS011;40065;49.894;10.358;2023-04-27T10:28:55;6.72;;;3.38;;
54157;SDS011;40065;49.894;10.358;2023-04-27T10:34:08;5.65;;;2.85;;
54157;SDS011;40065;49.894;10.358;2023-04-27T10:39:14;5.47;;;3.15;;
54157;SDS011;40065;49.894;10.358;2023-04-27T10:44:52;5.70;;;2.70;;
54157;SDS011;40065;49.894;10.358;2023-04-27T10:49:56;4.68;;;2.90;;
54157;SDS011;40065;49.894;10.358;2023-04-27T10:55:11;5.70;;;2.60;;
54157;SDS011;40065;49.894;10.358;2023-04-27T11:00:26;6.57;;;3.20;;
54157;SDS011;40065;49.894;10.358;2023-04-27T11:05:32;5.65;;;3.45;;
54157;SDS011;40065;49.894;10.358;2023-04-27T11:10:34;4.88;;;3.00;;
54157;SDS011;40065;49.894;10.358;2023-04-27T11:20:48;6.97;;;2.97;;
54157;SDS011;40065;49.894;10.358;2023-04-27T11:30:59;6.57;;;3.50;;
54157;SDS011;40065;49.894;10.358;2023-04-27T11:36:01;9.10;;;3.38;;
54157;SDS011;40065;49.894;10.358;2023-04-27T11:41:04;5.90;;;3.00;;
54157;SDS011;40065;49.894;10.358;2023-04-27T11:46:07;8.02;;;3.20;;
54157;SDS011;40065;49.894;10.358;2023-04-27T11:51:11;6.57;;;3.10;;
54157;SDS011;40065;49.894;10.358;2023-04-27T11:56:13;5.07;;;2.60;;
54157;SDS011;40065;49.894;10.358;2023-04-27T12:01:15;4.45;;;2.88;;
54157;SDS011;40065;49.894;10.358;2023-04-27T12:06:34;5.50;;;3.20;;
54157;SDS011;40065;49.894;10.358;2023-04-27T12:11:37;7.60;;;3.13;;
54157;SDS011;40065;49.894;10.358;2023-04-27T12:16:39;5.20;;;3.10;;
54157;SDS011;40065;49.894;10.358;2023-04-27T12:21:41;5.18;;;3.10;;
54157;SDS011;40065;49.894;10.358;2023-04-27T12:26:43;7.75;;;3.22;;
54157;SDS011;40065;49.894;10.358;2023-04-27T12:31:45;8.80;;;3.08;;
54157;SDS011;40065;49.894;10.358;2023-04-27T12:36:47;4.72;;;2.97;;
54157;SDS011;40065;49.894;10.358;2023-04-27T12:41:49;7.18;;;2.55;;
54157;SDS011;40065;49.894;10.358;2023-04-27T12:46:51;5.60;;;3.22;;
54157;SDS011;40065;49.894;10.358;2023-04-27T12:51:53;4.60;;;2.63;;
54157;SDS011;40065;49.894;10.358;2023-04-27T12:56:56;5.70;;;2.60;;
54157;SDS011;40065;49.894;10.358;2023-04-27T13:01:59;7.18;;;2.92;;
54157;SDS011;40065;49.894;10.358;2023-04-27T13:07:02;7.95;;;2.80;;
54157;SDS011;40065;49.894;10.358;2023-04-27T13:12:04;7.03;;;2.80;;
54157;SDS011;40065;49.894;10.358;2023-04-27T13:17:07;5.53;;;2.85;;
54157;SDS011;40065;49.894;10.358;2023-04-27T13:22:09;6.30;;;2.53;;
54157;SDS011;40065;49.894;10.358;2023-04-27T13:27:11;4.60;;;2.40;;
54157;SDS011;40065;49.894;10.358;2023-04-27T13:32:12;6.80;;;2.92;;
54157;SDS011;40065;49.894;10.358;2023-04-27T13:37:14;8.23;;;2.80;;
54157;SDS011;40065;49.894;10.358;2023-04-27T13:42:17;10.55;;;3.25;;
54157;SDS011;40065;49.894;10.358;2023-04-27T13:47:19;5.20;;;2.90;;
54157;SDS011;40065;49.894;10.358;2023-04-27T13:52:21;6.22;;;2.50;;
54157;SDS011;40065;49.894;10.358;2023-04-27T13:57:22;7.07;;;2.40;;
54157;SDS011;40065;49.894;10.358;2023-04-27T14:02:25;6.00;;;2.92;;
54157;SDS011;40065;49.894;10.358;2023-04-27T14:07:28;5.43;;;2.60;;
54157;SDS011;40065;49.894;10.358;2023-04-27T14:12:31;6.97;;;3.50;;
54157;SDS011;40065;49.894;10.358;2023-04-27T14:17:33;6.95;;;3.20;;
54157;SDS011;40065;49.894;10.358;2023-04-27T14:22:35;8.80;;;3.00;;
54157;SDS011;40065;49.894;10.358;2023-04-27T14:27:37;3.65;;;2.25;;
54157;SDS011;40065;49.894;10.358;2023-04-27T14:32:39;7.43;;;2.65;;
54157;SDS011;40065;49.894;10.358;2023-04-27T14:37:42;8.30;;;3.38;;
54157;SDS011;40065;49.894;10.358;2023-04-27T14:42:43;6.10;;;2.88;;
54157;SDS011;40065;49.894;10.358;2023-04-27T14:47:45;7.70;;;2.85;;
54157;SDS011;40065;49.894;10.358;2023-04-27T14:52:47;4.50;;;2.65;;
54157;SDS011;40065;49.894;10.358;2023-04-27T14:57:49;4.10;;;2.40;;
54157;SDS011;40065;49.894;10.358;2023-04-27T15:02:51;3.55;;;1.95;;
54157;SDS011;40065;49.894;10.358;2023-04-27T15:07:53;5.00;;;2.30;;
54157;SDS011;40065;49.894;10.358;2023-04-27T15:12:55;7.47;;;2.80;;
54157;SDS011;40065;49.894;10.358;2023-04-27T15:17:57;7.47;;;2.58;;
54157;SDS011;40065;49.894;10.358;2023-04-27T15:22:59;4.18;;;2.15;;
54157;SDS011;40065;49.894;10.358;2023-04-27T15:28:01;9.45;;;3.30;;
54157;SDS011;40065;49.894;10.358;2023-04-27T15:33:03;8.15;;;3.58;;
54157;SDS011;40065;49.894;10.358;2023-04-27T15:38:09;9.57;;;2.60;;
54157;SDS011;40065;49.894;10.358;2023-04-27T15:43:12;8.10;;;3.35;;
54157;SDS011;40065;49.894;10.358;2023-04-27T15:48:15;6.43;;;2.83;;
54157;SDS011;40065;49.894;10.358;2023-04-27T15:53:17;6.72;;;2.92;;
54157;SDS011;40065;49.894;10.358;2023-04-27T15:58:18;8.18;;;2.67;;
54157;SDS011;40065;49.894;10.358;2023-04-27T16:03:20;8.90;;;3.22;;
54157;SDS011;40065;49.894;10.358;2023-04-27T16:08:22;4.88;;;2.38;;
54157;SDS011;40065;49.894;10.358;2023-04-27T16:13:26;5.38;;;1.90;;
54157;SDS011;40065;49.894;10.358;2023-04-27T16:18:28;4.53;;;2.78;;
54157;SDS011;40065;49.894;10.358;2023-04-27T16:23:30;6.57;;;2.15;;
54157;SDS011;40065;49.894;10.358;2023-04-27T16:28:33;6.00;;;2.35;;
54157;SDS011;40065;49.894;10.358;2023-04-27T16:33:35;3.97;;;2.20;;
54157;SDS011;40065;49.894;10.358;2023-04-27T16:38:36;5.63;;;2.40;;
54157;SDS011;40065;49.894;10.358;2023-04-27T16:43:39;6.13;;;2.40;;
54157;SDS011;40065;49.894;10.358;2023-04-27T16:48:41;5.18;;;2.40;;
54157;SDS011;40065;49.894;10.358;2023-04-27T16:53:43;6.10;;;2.10;;
54157;SDS011;40065;49.894;10.358;2023-04-27T16:58:46;4.05;;;1.90;;
54157;SDS011;40065;49.894;10.358;2023-04-27T17:03:48;4.18;;;2.03;;
54157;SDS011;40065;49.894;10.358;2023-04-27T17:08:50;4.28;;;2.00;;
54157;SDS011;40065;49.894;10.358;2023-04-27T17:13:52;4.85;;;2.38;;
54157;SDS011;40065;49.894;10.358;2023-04-27T17:18:54;5.10;;;1.70;;
54157;SDS011;40065;49.894;10.358;2023-04-27T17:23:56;4.93;;;2.47;;
54157;SDS011;40065;49.894;10.358;2023-04-27T17:28:58;4.50;;;1.90;;
54157;SDS011;40065;49.894;10.358;2023-04-27T17:34:01;3.43;;;1.90;;
54157;SDS011;40065;49.894;10.358;2023-04-27T17:39:03;4.93;;;1.80;;
54157;SDS011;40065;49.894;10.358;2023-04-27T17:44:05;6.50;;;1.90;;
54157;SDS011;40065;49.894;10.358;2023-04-27T17:49:07;3.05;;;1.50;;
54157;SDS011;40065;49.894;10.358;2023-04-27T17:54:09;4.93;;;1.60;;
54157;SDS011;40065;49.894;10.358;2023-04-27T17:59:11;4.75;;;1.75;;
54157;SDS011;40065;49.894;10.358;2023-04-27T18:04:13;3.58;;;1.48;;
54157;SDS011;40065;49.894;10.358;2023-04-27T18:09:15;4.15;;;2.17;;
54157;SDS011;40065;49.894;10.358;2023-04-27T18:14:17;5.32;;;2.40;;
54157;SDS011;40065;49.894;10.358;2023-04-27T18:19:19;8.32;;;2.30;;
54157;SDS011;40065;49.894;10.358;2023-04-27T18:24:21;4.57;;;2.45;;
54157;SDS011;40065;49.894;10.358;2023-04-27T18:29:23;5.05;;;2.55;;
54157;SDS011;40065;49.894;10.358;2023-04-27T18:34:25;4.78;;;2.15;;
54157;SDS011;40065;49.894;10.358;2023-04-27T18:39:26;5.93;;;2.10;;
54157;SDS011;40065;49.894;10.358;2023-04-27T18:44:28;4.47;;;1.98;;
54157;SDS011;40065;49.894;10.358;2023-04-27T18:49:30;4.13;;;1.73;;
54157;SDS011;40065;49.894;10.358;2023-04-27T18:54:32;5.18;;;1.50;;
54157;SDS011;40065;49.894;10.358;2023-04-27T18:59:35;3.15;;;1.40;;
54157;SDS011;40065;49.894;10.358;2023-04-27T19:04:38;4.50;;;1.38;;
54157;SDS011;40065;49.894;10.358;2023-04-27T19:09:49;3.25;;;1.70;;
54157;SDS011;40065;49.894;10.358;2023-04-27T19:14:52;2.88;;;1.30;;
54157;SDS011;40065;49.894;10.358;2023-04-27T19:19:54;2.00;;;1.23;;
54157;SDS011;40065;49.894;10.358;2023-04-27T19:24:56;5.88;;;2.10;;
54157;SDS011;40065;49.894;10.358;2023-04-27T19:29:58;3.13;;;1.30;;
54157;SDS011;40065;49.894;10.358;2023-04-27T19:34:59;3.80;;;1.77;;
54157;SDS011;40065;49.894;10.358;2023-04-27T19:40:01;4.82;;;1.55;;
54157;SDS011;40065;49.894;10.358;2023-04-27T19:45:04;3.78;;;1.95;;
54157;SDS011;40065;49.894;10.358;2023-04-27T19:50:07;3.95;;;1.60;;
54157;SDS011;40065;49.894;10.358;2023-04-27T19:55:09;3.80;;;1.85;;
54157;SDS011;40065;49.894;10.358;2023-04-27T20:00:11;3.97;;;1.63;;
54157;SDS011;40065;49.894;10.358;2023-04-27T20:05:14;3.05;;;1.50;;
54157;SDS011;40065;49.894;10.358;2023-04-27T20:10:16;5.05;;;1.67;;
54157;SDS011;40065;49.894;10.358;2023-04-27T20:15:18;3.78;;;2.13;;
54157;SDS011;40065;49.894;10.358;2023-04-27T20:20:20;5.53;;;2.03;;
54157;SDS011;40065;49.894;10.358;2023-04-27T20:25:22;4.70;;;2.13;;
54157;SDS011;40065;49.894;10.358;2023-04-27T20:30:26;6.43;;;2.13;;
54157;SDS011;40065;49.894;10.358;2023-04-27T20:35:28;3.83;;;2.20;;
54157;SDS011;40065;49.894;10.358;2023-04-27T20:40:31;4.43;;;2.40;;
54157;SDS011;40065;49.894;10.358;2023-04-27T20:45:33;3.75;;;2.05;;
54157;SDS011;40065;49.894;10.358;2023-04-27T20:50:34;6.35;;;2.30;;
54157;SDS011;40065;49.894;10.358;2023-04-27T20:55:37;6.80;;;2.80;;
54157;SDS011;40065;49.894;10.358;2023-04-27T21:00:39;4.68;;;2.40;;
54157;SDS011;40065;49.894;10.358;2023-04-27T21:05:40;3.67;;;2.00;;
54157;SDS011;40065;49.894;10.358;2023-04-27T21:10:42;5.90;;;2.85;;
54157;SDS011;40065;49.894;10.358;2023-04-27T21:15:44;4.97;;;2.30;;
54157;SDS011;40065;49.894;10.358;2023-04-27T21:20:46;6.05;;;2.38;;
54157;SDS011;40065;49.894;10.358;2023-04-27T21:25:48;7.38;;;2.83;;
54157;SDS011;40065;49.894;10.358;2023-04-27T21:30:49;8.85;;;2.67;;
54157;SDS011;40065;49.894;10.358;2023-04-27T21:35:51;4.55;;;2.15;;
54157;SDS011;40065;49.894;10.358;2023-04-27T21:40:53;3.80;;;2.30;;
54157;SDS011;40065;49.894;10.358;2023-04-27T21:45:55;8.63;;;2.70;;
54157;SDS011;40065;49.894;10.358;2023-04-27T21:50:57;7.10;;;2.83;;
54157;SDS011;40065;49.894;10.358;2023-04-27T21:55:58;6.80;;;2.58;;
54157;SDS011;40065;49.894;10.358;2023-04-27T22:01:00;5.57;;;3.03;;
54157;SDS011;40065;49.894;10.358;2023-04-27T22:06:02;7.20;;;2.95;;
54157;SDS011;40065;49.894;10.358;2023-04-27T22:11:05;8.65;;;2.95;;
54157;SDS011;40065;49.894;10.358;2023-04-27T22:16:06;5.68;;;2.60;;
54157;SDS011;40065;49.894;10.358;2023-04-27T22:21:08;5.78;;;3.22;;
54157;SDS011;40065;49.894;10.358;2023-04-27T22:26:12;6.77;;;3.10;;
54157;SDS011;40065;49.894;10.358;2023-04-27T22:31:14;4.97;;;2.65;;
54157;SDS011;40065;49.894;10.358;2023-04-27T22:36:16;6.07;;;3.80;;
54157;SDS011;40065;49.894;10.358;2023-04-27T22:41:18;8.32;;;3.72;;
54157;SDS011;40065;49.894;10.358;2023-04-27T22:46:20;6.90;;;3.53;;
54157;SDS011;40065;49.894;10.358;2023-04-27T22:51:23;5.70;;;3.13;;
54157;SDS011;40065;49.894;10.358;2023-04-27T22:56:27;6.40;;;3.17;;
54157;SDS011;40065;49.894;10.358;2023-04-27T23:01:29;6.97;;;2.90;;
54157;SDS011;40065;49.894;10.358;2023-04-27T23:06:31;6.07;;;2.65;;
54157;SDS011;40065;49.894;10.358;2023-04-27T23:11:33;4.88;;;2.63;;
54157;SDS011;40065;49.894;10.358;2023-04-27T23:16:34;6.43;;;2.67;;
54157;SDS011;40065;49.894;10.358;2023-04-27T23:21:37;4.40;;;2.22;;
54157;SDS011;40065;49.894;10.358;2023-04-27T23:26:39;5.20;;;2.78;;
54157;SDS011;40065;49.894;10.358;2023-04-27T23:31:41;4.78;;;2.05;;
54157;SDS011;40065;49.894;10.358;2023-04-27T23:36:43;4.03;;;2.15;;
54157;SDS011;40065;49.894;10.358;2023-04-27T23:41:45;4.22;;;2.13;;
54157;SDS011;40065;49.894;10.358;2023-04-27T23:46:46;3.83;;;2.20;;
54157;SDS011;40065;49.894;10.358;2023-04-27T23:51:48;4.43;;;2.90;;
54157;SDS011;40065;49.894;10.358;2023-04-27T23:56:51;4.73;;;2.90;;
